Pagrindinis puslapis
METAR-TAF:

METAR-TAF

Oro uostai :

Craig, Koloradas, Jungtinės Amerikos Valstijos

platuma: 40-29-36N, ilguma: 107-31-25W, Aukštis: 1888 m

Dabartinis oras

Ataskaita buvo paskelbta 23 minutes, ne 20:53 UTC
Vėjas 6 kt iš Vakarų/Pietvakarių
Temperatūra -1°C
Drėgmė 93%
Slėgis 1019 hPa
Matomumas: 1.2 km
Su prošvaistėmis ne aukštis 1400 ft
Apsiniaukę ne aukštis 2000 ft
sniegas, rūkana

METAR: KCAG 272053Z AUTO 24006KT 3/4SM -SN BR BKN014 OVC020 M01/M02 A3009 RMK AO2 SLP228 P0000 60001 T10061017 53003

Laikas: 14:16 (21:16 UTC)


TAF: trūkstamas

Orai ataskaitas ir orų prognozės (METAR, TAF).

turimą stotys yra geltonos ir raudonos taškus žemėlapyje.

Perkelti pele per norėdami pamatyti stoties vardą.

Tada spustelėkite, norėdami matyti oro stebėjimo ir prognozės.

Norėdami pakeisti žemėlapį: spustelėkite ant žalios mygtukų su juodo kryžiaus žemyn,; žalią mygtuką su brūkšneliu, jei norite nutolinti; arba žalių rodyklių gretimoms žemėlapius.


METAR-TAF: